createdAt,value
2023-01-21T00:27:47.672Z,1008.9730000000001
2023-01-21T00:58:06.351Z,1009.375
2023-01-21T01:28:25.022Z,1010.05
2023-01-21T01:58:42.578Z,1010.346
2023-01-21T02:29:01.029Z,1010.6519999999999
2023-01-21T02:59:18.590Z,1011.075
2023-01-21T03:29:35.874Z,1011.2639999999999
2023-01-21T03:59:53.634Z,1011.5219999999999
2023-01-21T04:30:11.946Z,1011.7260000000001
2023-01-21T05:00:28.163Z,1011.946
2023-01-21T05:30:45.666Z,1012.24
2023-01-21T06:01:03.647Z,1012.462
2023-01-21T06:31:21.674Z,1012.68
2023-01-21T07:01:40.028Z,1013.0139999999999
2023-01-21T07:31:57.662Z,1013.301
2023-01-21T08:02:18.391Z,1013.5880000000001
2023-01-21T08:32:37.723Z,1013.7360000000001
2023-01-21T09:03:06.096Z,1013.959
2023-01-21T09:33:24.634Z,1014.184
2023-01-21T10:03:46.809Z,1014.5160000000001
2023-01-21T10:34:05.207Z,1014.455
2023-01-21T11:04:26.622Z,1014.4939999999999
2023-01-21T11:34:46.586Z,1014.571
2023-01-21T12:05:03.933Z,1014.699
2023-01-21T12:35:21.140Z,1014.567
2023-01-21T13:05:38.822Z,1014.691
2023-01-21T13:35:59.851Z,1014.94
2023-01-21T14:06:19.027Z,1014.908
2023-01-21T14:36:37.752Z,1014.951
2023-01-21T15:06:53.723Z,1014.905
2023-01-21T15:37:11.021Z,1015.1339999999999
2023-01-21T16:07:28.260Z,1015.2560000000001
2023-01-21T16:37:46.991Z,1015.3939999999999
2023-01-21T17:08:04.182Z,1015.1569999999999
2023-01-21T17:38:20.889Z,1015.174
2023-01-21T18:08:37.045Z,1015.252
2023-01-21T18:38:54.799Z,1015.2869999999999
2023-01-21T19:09:13.982Z,1015.3660000000001
2023-01-21T19:39:32.427Z,1015.317
2023-01-21T20:09:49.765Z,1015.184
2023-01-21T20:40:14.052Z,1015.007
2023-01-21T21:10:32.281Z,1015.0089999999999
2023-01-21T21:40:54.730Z,1014.68
2023-01-21T22:11:18.243Z,1014.43
2023-01-21T22:41:37.300Z,1014.178
2023-01-21T23:11:54.488Z,1014.057
2023-01-21T23:42:16.036Z,1013.716
